sensor_id;sensor_type;location;lat;lon;timestamp;temperature;humidity
8402;DHT22;4238;48.404;9.498;2022-09-06T00:00:56;13.50;99.90
8402;DHT22;4238;48.404;9.498;2022-09-06T00:03:23;13.60;99.90
8402;DHT22;4238;48.404;9.498;2022-09-06T00:05:52;13.60;99.90
8402;DHT22;4238;48.404;9.498;2022-09-06T00:08:19;13.50;99.90
8402;DHT22;4238;48.404;9.498;2022-09-06T00:10:55;13.50;99.90
8402;DHT22;4238;48.404;9.498;2022-09-06T00:13:23;13.60;99.90
8402;DHT22;4238;48.404;9.498;2022-09-06T00:15:50;13.50;99.90
8402;DHT22;4238;48.404;9.498;2022-09-06T00:18:17;13.50;99.90
8402;DHT22;4238;48.404;9.498;2022-09-06T00:20:44;13.40;99.90
8402;DHT22;4238;48.404;9.498;2022-09-06T00:23:11;13.50;99.90
8402;DHT22;4238;48.404;9.498;2022-09-06T00:25:38;13.50;99.90
8402;DHT22;4238;48.404;9.498;2022-09-06T00:28:07;13.40;99.90
8402;DHT22;4238;48.404;9.498;2022-09-06T00:30:34;13.30;99.90
8402;DHT22;4238;48.404;9.498;2022-09-06T00:33:01;13.40;99.90
8402;DHT22;4238;48.404;9.498;2022-09-06T00:35:28;13.30;99.90
8402;DHT22;4238;48.404;9.498;2022-09-06T00:37:56;13.30;99.90
8402;DHT22;4238;48.404;9.498;2022-09-06T00:40:23;13.30;99.90
8402;DHT22;4238;48.404;9.498;2022-09-06T00:42:50;13.40;99.90
8402;DHT22;4238;48.404;9.498;2022-09-06T00:45:19;13.40;99.90
8402;DHT22;4238;48.404;9.498;2022-09-06T00:47:46;13.40;99.90
8402;DHT22;4238;48.404;9.498;2022-09-06T00:50:15;13.40;99.90
8402;DHT22;4238;48.404;9.498;2022-09-06T00:52:45;13.40;99.90
8402;DHT22;4238;48.404;9.498;2022-09-06T00:55:14;13.30;99.90
8402;DHT22;4238;48.404;9.498;2022-09-06T00:57:41;13.40;99.90
8402;DHT22;4238;48.404;9.498;2022-09-06T01:00:09;13.40;99.90
8402;DHT22;4238;48.404;9.498;2022-09-06T01:02:37;13.40;99.90
8402;DHT22;4238;48.404;9.498;2022-09-06T01:05:05;13.40;99.90
8402;DHT22;4238;48.404;9.498;2022-09-06T01:10:41;13.30;99.90
8402;DHT22;4238;48.404;9.498;2022-09-06T01:13:19;13.40;99.90
8402;DHT22;4238;48.404;9.498;2022-09-06T01:15:56;13.50;99.90
8402;DHT22;4238;48.404;9.498;2022-09-06T01:18:37;13.30;99.90
8402;DHT22;4238;48.404;9.498;2022-09-06T01:21:19;13.20;99.90
8402;DHT22;4238;48.404;9.498;2022-09-06T01:24:17;13.20;99.90
8402;DHT22;4238;48.404;9.498;2022-09-06T01:30:04;13.30;99.90
8402;DHT22;4238;48.404;9.498;2022-09-06T01:32:40;13.30;99.90
8402;DHT22;4238;48.404;9.498;2022-09-06T01:35:16;13.30;99.90
8402;DHT22;4238;48.404;9.498;2022-09-06T01:37:45;13.20;99.90
8402;DHT22;4238;48.404;9.498;2022-09-06T01:40:12;13.30;99.90
8402;DHT22;4238;48.404;9.498;2022-09-06T01:42:40;13.30;99.90
8402;DHT22;4238;48.404;9.498;2022-09-06T01:45:13;13.20;99.90
8402;DHT22;4238;48.404;9.498;2022-09-06T01:47:48;13.20;99.90
8402;DHT22;4238;48.404;9.498;2022-09-06T01:50:44;13.20;99.90
8402;DHT22;4238;48.404;9.498;2022-09-06T01:53:21;13.10;99.90
8402;DHT22;4238;48.404;9.498;2022-09-06T01:55:57;13.10;99.90
8402;DHT22;4238;48.404;9.498;2022-09-06T01:58:47;13.10;99.90
8402;DHT22;4238;48.404;9.498;2022-09-06T02:01:23;13.10;99.90
8402;DHT22;4238;48.404;9.498;2022-09-06T02:03:56;13.10;99.90
8402;DHT22;4238;48.404;9.498;2022-09-06T02:06:27;13.10;99.90
8402;DHT22;4238;48.404;9.498;2022-09-06T02:09:01;13.20;99.90
8402;DHT22;4238;48.404;9.498;2022-09-06T02:11:33;13.10;99.90
8402;DHT22;4238;48.404;9.498;2022-09-06T02:14:05;13.10;99.90
8402;DHT22;4238;48.404;9.498;2022-09-06T02:16:36;13.10;99.90
8402;DHT22;4238;48.404;9.498;2022-09-06T02:19:09;13.10;99.90
8402;DHT22;4238;48.404;9.498;2022-09-06T02:21:42;13.10;99.90
8402;DHT22;4238;48.404;9.498;2022-09-06T02:24:14;13.10;99.90
8402;DHT22;4238;48.404;9.498;2022-09-06T02:26:43;13.20;99.90
8402;DHT22;4238;48.404;9.498;2022-09-06T02:29:12;13.20;99.90
8402;DHT22;4238;48.404;9.498;2022-09-06T02:31:43;13.20;99.90
8402;DHT22;4238;48.404;9.498;2022-09-06T02:34:14;13.20;99.90
8402;DHT22;4238;48.404;9.498;2022-09-06T02:36:43;13.20;99.90
8402;DHT22;4238;48.404;9.498;2022-09-06T02:39:11;13.20;99.90
8402;DHT22;4238;48.404;9.498;2022-09-06T02:41:39;13.10;99.90
8402;DHT22;4238;48.404;9.498;2022-09-06T02:44:06;13.10;99.90
8402;DHT22;4238;48.404;9.498;2022-09-06T02:46:33;13.30;99.90
8402;DHT22;4238;48.404;9.498;2022-09-06T02:49:02;13.30;99.90
8402;DHT22;4238;48.404;9.498;2022-09-06T02:51:29;13.40;99.90
8402;DHT22;4238;48.404;9.498;2022-09-06T02:53:56;13.30;99.90
8402;DHT22;4238;48.404;9.498;2022-09-06T02:56:23;13.40;99.90
8402;DHT22;4238;48.404;9.498;2022-09-06T02:58:50;13.30;99.90
8402;DHT22;4238;48.404;9.498;2022-09-06T03:01:17;13.40;99.90
8402;DHT22;4238;48.404;9.498;2022-09-06T03:03:44;13.40;99.90
8402;DHT22;4238;48.404;9.498;2022-09-06T03:06:12;13.30;99.90
8402;DHT22;4238;48.404;9.498;2022-09-06T03:08:39;13.40;99.90
8402;DHT22;4238;48.404;9.498;2022-09-06T03:11:06;13.50;99.90
8402;DHT22;4238;48.404;9.498;2022-09-06T03:13:33;13.50;99.90
8402;DHT22;4238;48.404;9.498;2022-09-06T03:16:00;13.50;99.90
8402;DHT22;4238;48.404;9.498;2022-09-06T03:18:29;13.50;99.90
8402;DHT22;4238;48.404;9.498;2022-09-06T03:20:56;13.50;99.90
8402;DHT22;4238;48.404;9.498;2022-09-06T03:23:27;13.50;99.90
8402;DHT22;4238;48.404;9.498;2022-09-06T03:25:54;13.40;99.90
8402;DHT22;4238;48.404;9.498;2022-09-06T03:28:22;13.40;99.90
8402;DHT22;4238;48.404;9.498;2022-09-06T03:30:50;13.40;99.90
8402;DHT22;4238;48.404;9.498;2022-09-06T03:33:17;13.30;99.90
8402;DHT22;4238;48.404;9.498;2022-09-06T03:35:47;13.30;99.90
8402;DHT22;4238;48.404;9.498;2022-09-06T03:38:15;13.30;99.90
8402;DHT22;4238;48.404;9.498;2022-09-06T03:40:45;13.40;99.90
8402;DHT22;4238;48.404;9.498;2022-09-06T03:43:12;13.50;99.90
8402;DHT22;4238;48.404;9.498;2022-09-06T03:45:43;13.30;99.90
8402;DHT22;4238;48.404;9.498;2022-09-06T03:48:10;13.40;99.90
8402;DHT22;4238;48.404;9.498;2022-09-06T03:50:37;13.40;99.90
8402;DHT22;4238;48.404;9.498;2022-09-06T03:53:04;13.70;99.90
8402;DHT22;4238;48.404;9.498;2022-09-06T03:55:31;13.90;99.90
8402;DHT22;4238;48.404;9.498;2022-09-06T03:57:59;14.10;99.90
8402;DHT22;4238;48.404;9.498;2022-09-06T04:00:26;14.40;99.90
8402;DHT22;4238;48.404;9.498;2022-09-06T04:02:53;14.50;99.90
8402;DHT22;4238;48.404;9.498;2022-09-06T04:05:20;14.60;99.90
8402;DHT22;4238;48.404;9.498;2022-09-06T04:07:47;14.60;99.90
8402;DHT22;4238;48.404;9.498;2022-09-06T04:10:14;14.60;99.90
8402;DHT22;4238;48.404;9.498;2022-09-06T04:12:41;14.70;99.90
8402;DHT22;4238;48.404;9.498;2022-09-06T04:15:10;14.70;99.90
8402;DHT22;4238;48.404;9.498;2022-09-06T04:17:37;14.70;99.90
8402;DHT22;4238;48.404;9.498;2022-09-06T04:20:05;14.80;99.90
8402;DHT22;4238;48.404;9.498;2022-09-06T04:22:32;14.80;99.90
8402;DHT22;4238;48.404;9.498;2022-09-06T04:24:58;14.70;99.90
8402;DHT22;4238;48.404;9.498;2022-09-06T04:27:26;14.60;99.90
8402;DHT22;4238;48.404;9.498;2022-09-06T04:29:53;14.60;99.90
8402;DHT22;4238;48.404;9.498;2022-09-06T04:32:22;14.60;99.90
8402;DHT22;4238;48.404;9.498;2022-09-06T04:34:49;14.50;99.90
8402;DHT22;4238;48.404;9.498;2022-09-06T04:37:16;14.40;99.90
8402;DHT22;4238;48.404;9.498;2022-09-06T04:39:44;14.40;99.90
8402;DHT22;4238;48.404;9.498;2022-09-06T04:42:11;14.30;99.90
8402;DHT22;4238;48.404;9.498;2022-09-06T04:44:38;14.20;99.90
8402;DHT22;4238;48.404;9.498;2022-09-06T04:47:07;14.20;99.90
8402;DHT22;4238;48.404;9.498;2022-09-06T04:49:38;14.10;99.90
8402;DHT22;4238;48.404;9.498;2022-09-06T04:52:05;14.10;99.90
8402;DHT22;4238;48.404;9.498;2022-09-06T04:54:32;14.10;99.90
8402;DHT22;4238;48.404;9.498;2022-09-06T04:56:59;14.00;99.90
8402;DHT22;4238;48.404;9.498;2022-09-06T04:59:26;14.00;99.90
8402;DHT22;4238;48.404;9.498;2022-09-06T05:01:53;13.90;99.90
8402;DHT22;4238;48.404;9.498;2022-09-06T05:04:20;14.00;99.90
8402;DHT22;4238;48.404;9.498;2022-09-06T05:06:48;14.00;99.90
8402;DHT22;4238;48.404;9.498;2022-09-06T05:09:15;14.00;99.90
8402;DHT22;4238;48.404;9.498;2022-09-06T05:11:42;14.00;99.90
8402;DHT22;4238;48.404;9.498;2022-09-06T05:14:09;14.00;99.90
8402;DHT22;4238;48.404;9.498;2022-09-06T05:16:36;14.20;99.90
8402;DHT22;4238;48.404;9.498;2022-09-06T05:19:03;14.20;99.90
8402;DHT22;4238;48.404;9.498;2022-09-06T05:21:30;14.00;99.90
8402;DHT22;4238;48.404;9.498;2022-09-06T05:23:58;13.90;99.90
8402;DHT22;4238;48.404;9.498;2022-09-06T05:26:25;13.90;99.90
8402;DHT22;4238;48.404;9.498;2022-09-06T05:28:52;13.90;99.90
8402;DHT22;4238;48.404;9.498;2022-09-06T05:31:25;14.10;99.90
8402;DHT22;4238;48.404;9.498;2022-09-06T05:33:53;14.30;99.90
8402;DHT22;4238;48.404;9.498;2022-09-06T05:36:22;14.50;99.90
8402;DHT22;4238;48.404;9.498;2022-09-06T05:38:49;14.50;99.90
8402;DHT22;4238;48.404;9.498;2022-09-06T05:41:17;14.50;99.90
8402;DHT22;4238;48.404;9.498;2022-09-06T05:43:45;14.80;99.90
8402;DHT22;4238;48.404;9.498;2022-09-06T05:46:12;15.00;99.90
8402;DHT22;4238;48.404;9.498;2022-09-06T05:48:39;15.20;99.90
8402;DHT22;4238;48.404;9.498;2022-09-06T05:51:08;15.30;99.90
8402;DHT22;4238;48.404;9.498;2022-09-06T05:53:39;15.50;99.90
8402;DHT22;4238;48.404;9.498;2022-09-06T05:56:07;15.80;99.90
8402;DHT22;4238;48.404;9.498;2022-09-06T05:58:35;15.90;99.90
8402;DHT22;4238;48.404;9.498;2022-09-06T06:01:05;16.10;93.70
8402;DHT22;4238;48.404;9.498;2022-09-06T06:03:32;16.20;91.00
8402;DHT22;4238;48.404;9.498;2022-09-06T06:05:59;16.30;83.50
8402;DHT22;4238;48.404;9.498;2022-09-06T06:08:26;16.20;90.70
8402;DHT22;4238;48.404;9.498;2022-09-06T06:10:57;16.20;90.80
8402;DHT22;4238;48.404;9.498;2022-09-06T06:13:25;16.30;91.20
8402;DHT22;4238;48.404;9.498;2022-09-06T06:15:53;16.30;94.10
8402;DHT22;4238;48.404;9.498;2022-09-06T06:18:21;16.30;94.80
8402;DHT22;4238;48.404;9.498;2022-09-06T06:20:47;16.40;94.70
8402;DHT22;4238;48.404;9.498;2022-09-06T06:23:15;16.50;97.10
8402;DHT22;4238;48.404;9.498;2022-09-06T06:25:42;16.50;97.80
8402;DHT22;4238;48.404;9.498;2022-09-06T06:28:09;16.60;99.90
8402;DHT22;4238;48.404;9.498;2022-09-06T06:30:35;16.70;99.90
8402;DHT22;4238;48.404;9.498;2022-09-06T06:33:04;16.80;99.90
8402;DHT22;4238;48.404;9.498;2022-09-06T06:35:31;16.80;99.90
8402;DHT22;4238;48.404;9.498;2022-09-06T06:37:58;16.80;99.90
8402;DHT22;4238;48.404;9.498;2022-09-06T06:40:25;17.00;99.90
8402;DHT22;4238;48.404;9.498;2022-09-06T06:42:52;17.00;99.90
8402;DHT22;4238;48.404;9.498;2022-09-06T06:45:19;17.10;99.90
8402;DHT22;4238;48.404;9.498;2022-09-06T06:47:48;17.20;99.90
8402;DHT22;4238;48.404;9.498;2022-09-06T06:50:16;17.20;99.90
8402;DHT22;4238;48.404;9.498;2022-09-06T06:52:43;17.20;99.90
8402;DHT22;4238;48.404;9.498;2022-09-06T06:55:10;17.30;99.90
8402;DHT22;4238;48.404;9.498;2022-09-06T06:57:37;17.40;99.90
8402;DHT22;4238;48.404;9.498;2022-09-06T07:00:05;17.40;99.90
8402;DHT22;4238;48.404;9.498;2022-09-06T07:02:32;17.50;99.90
8402;DHT22;4238;48.404;9.498;2022-09-06T07:04:59;17.50;99.90
8402;DHT22;4238;48.404;9.498;2022-09-06T07:07:27;17.60;99.90
8402;DHT22;4238;48.404;9.498;2022-09-06T07:09:54;17.80;99.90
8402;DHT22;4238;48.404;9.498;2022-09-06T07:12:21;17.90;99.90
8402;DHT22;4238;48.404;9.498;2022-09-06T07:14:48;17.90;99.80
8402;DHT22;4238;48.404;9.498;2022-09-06T07:17:15;17.80;99.90
8402;DHT22;4238;48.404;9.498;2022-09-06T07:19:42;17.90;99.90
8402;DHT22;4238;48.404;9.498;2022-09-06T07:22:09;18.10;99.90
8402;DHT22;4238;48.404;9.498;2022-09-06T07:24:37;18.40;99.90
8402;DHT22;4238;48.404;9.498;2022-09-06T07:27:05;18.80;77.20
8402;DHT22;4238;48.404;9.498;2022-09-06T07:29:31;19.20;79.60
8402;DHT22;4238;48.404;9.498;2022-09-06T07:31:59;19.60;68.00
8402;DHT22;4238;48.404;9.498;2022-09-06T07:34:26;20.00;55.10
8402;DHT22;4238;48.404;9.498;2022-09-06T07:36:53;20.00;25.40
8402;DHT22;4238;48.404;9.498;2022-09-06T07:39:20;20.20;21.70
8402;DHT22;4238;48.404;9.498;2022-09-06T07:41:49;20.20;12.00
8402;DHT22;4238;48.404;9.498;2022-09-06T07:44:16;20.00;10.90
8402;DHT22;4238;48.404;9.498;2022-09-06T07:46:43;19.90;23.00
8402;DHT22;4238;48.404;9.498;2022-09-06T07:49:10;19.90;21.70
8402;DHT22;4238;48.404;9.498;2022-09-06T07:51:37;20.00;15.50
8402;DHT22;4238;48.404;9.498;2022-09-06T07:54:05;20.10;15.10
8402;DHT22;4238;48.404;9.498;2022-09-06T07:56:32;20.30;16.00
8402;DHT22;4238;48.404;9.498;2022-09-06T07:59:00;20.40;1.50
8402;DHT22;4238;48.404;9.498;2022-09-06T08:01:29;20.70;1.00
8402;DHT22;4238;48.404;9.498;2022-09-06T08:03:57;20.80;1.00
8402;DHT22;4238;48.404;9.498;2022-09-06T08:06:25;21.10;1.00
8402;DHT22;4238;48.404;9.498;2022-09-06T08:08:53;21.20;1.00
8402;DHT22;4238;48.404;9.498;2022-09-06T08:11:21;21.20;1.00
8402;DHT22;4238;48.404;9.498;2022-09-06T08:13:49;21.40;1.00
8402;DHT22;4238;48.404;9.498;2022-09-06T08:16:18;21.50;1.00
8402;DHT22;4238;48.404;9.498;2022-09-06T08:18:49;21.50;1.00
8402;DHT22;4238;48.404;9.498;2022-09-06T08:21:16;21.70;1.00
8402;DHT22;4238;48.404;9.498;2022-09-06T08:23:46;21.90;1.00
8402;DHT22;4238;48.404;9.498;2022-09-06T08:26:13;22.00;1.00
8402;DHT22;4238;48.404;9.498;2022-09-06T08:28:41;21.90;1.00
8402;DHT22;4238;48.404;9.498;2022-09-06T08:31:09;21.90;1.00
8402;DHT22;4238;48.404;9.498;2022-09-06T08:33:39;22.10;1.00
8402;DHT22;4238;48.404;9.498;2022-09-06T08:36:07;22.20;1.00
8402;DHT22;4238;48.404;9.498;2022-09-06T08:38:35;22.30;1.00
8402;DHT22;4238;48.404;9.498;2022-09-06T08:41:08;22.30;1.00
8402;DHT22;4238;48.404;9.498;2022-09-06T08:43:36;22.60;1.00
8402;DHT22;4238;48.404;9.498;2022-09-06T08:46:03;22.90;1.00
8402;DHT22;4238;48.404;9.498;2022-09-06T08:48:33;22.70;1.00
8402;DHT22;4238;48.404;9.498;2022-09-06T08:51:20;22.80;1.00
8402;DHT22;4238;48.404;9.498;2022-09-06T08:53:51;22.60;1.00
8402;DHT22;4238;48.404;9.498;2022-09-06T08:56:25;22.50;1.00
8402;DHT22;4238;48.404;9.498;2022-09-06T08:59:01;22.50;1.00
8402;DHT22;4238;48.404;9.498;2022-09-06T09:01:40;22.60;1.00
8402;DHT22;4238;48.404;9.498;2022-09-06T09:04:13;22.60;1.00
8402;DHT22;4238;48.404;9.498;2022-09-06T09:06:44;22.60;1.00
8402;DHT22;4238;48.404;9.498;2022-09-06T09:09:14;23.10;1.00
8402;DHT22;4238;48.404;9.498;2022-09-06T09:11:44;23.20;1.00
8402;DHT22;4238;48.404;9.498;2022-09-06T09:14:14;23.40;1.00
8402;DHT22;4238;48.404;9.498;2022-09-06T09:16:42;23.20;1.00
8402;DHT22;4238;48.404;9.498;2022-09-06T09:19:10;23.10;1.00
8402;DHT22;4238;48.404;9.498;2022-09-06T09:21:38;23.00;1.00
8402;DHT22;4238;48.404;9.498;2022-09-06T09:24:08;23.00;1.00
8402;DHT22;4238;48.404;9.498;2022-09-06T09:26:41;23.00;1.00
8402;DHT22;4238;48.404;9.498;2022-09-06T09:29:11;23.10;1.00
8402;DHT22;4238;48.404;9.498;2022-09-06T09:31:39;23.20;1.00
8402;DHT22;4238;48.404;9.498;2022-09-06T09:34:10;23.40;1.00
8402;DHT22;4238;48.404;9.498;2022-09-06T09:36:38;23.30;1.00
8402;DHT22;4238;48.404;9.498;2022-09-06T09:39:10;23.40;1.00
8402;DHT22;4238;48.404;9.498;2022-09-06T09:41:40;23.40;1.00
8402;DHT22;4238;48.404;9.498;2022-09-06T09:44:09;23.20;1.00
8402;DHT22;4238;48.404;9.498;2022-09-06T09:46:41;23.00;1.00
8402;DHT22;4238;48.404;9.498;2022-09-06T09:49:10;22.80;1.00
8402;DHT22;4238;48.404;9.498;2022-09-06T09:51:39;22.60;1.00
8402;DHT22;4238;48.404;9.498;2022-09-06T09:54:09;22.70;1.00
8402;DHT22;4238;48.404;9.498;2022-09-06T09:56:45;22.90;1.00
8402;DHT22;4238;48.404;9.498;2022-09-06T09:59:19;23.00;1.00
8402;DHT22;4238;48.404;9.498;2022-09-06T10:01:47;23.30;1.00
8402;DHT22;4238;48.404;9.498;2022-09-06T10:04:18;23.40;1.00
8402;DHT22;4238;48.404;9.498;2022-09-06T10:06:46;23.40;1.00
8402;DHT22;4238;48.404;9.498;2022-09-06T10:09:20;23.70;1.00
8402;DHT22;4238;48.404;9.498;2022-09-06T10:11:53;24.00;1.00
8402;DHT22;4238;48.404;9.498;2022-09-06T10:14:29;24.50;1.00
8402;DHT22;4238;48.404;9.498;2022-09-06T10:16:57;24.70;1.00
8402;DHT22;4238;48.404;9.498;2022-09-06T10:19:39;25.00;1.00
8402;DHT22;4238;48.404;9.498;2022-09-06T10:22:27;24.90;1.00
8402;DHT22;4238;48.404;9.498;2022-09-06T10:31:10;25.00;99.90
8402;DHT22;4238;48.404;9.498;2022-09-06T10:33:47;24.80;99.90
8402;DHT22;4238;48.404;9.498;2022-09-06T10:36:20;24.30;99.90
8402;DHT22;4238;48.404;9.498;2022-09-06T10:38:54;24.10;1.00
8402;DHT22;4238;48.404;9.498;2022-09-06T10:41:48;23.60;1.00
8402;DHT22;4238;48.404;9.498;2022-09-06T10:44:30;23.50;1.00
8402;DHT22;4238;48.404;9.498;2022-09-06T10:47:07;23.60;1.00
8402;DHT22;4238;48.404;9.498;2022-09-06T10:49:37;23.70;1.00
8402;DHT22;4238;48.404;9.498;2022-09-06T10:52:06;23.60;1.00
8402;DHT22;4238;48.404;9.498;2022-09-06T10:54:36;23.60;1.00
8402;DHT22;4238;48.404;9.498;2022-09-06T10:57:11;23.60;1.00
8402;DHT22;4238;48.404;9.498;2022-09-06T10:59:46;23.60;1.00
8402;DHT22;4238;48.404;9.498;2022-09-06T11:02:28;23.60;1.00
8402;DHT22;4238;48.404;9.498;2022-09-06T11:05:02;23.70;1.00
8402;DHT22;4238;48.404;9.498;2022-09-06T11:07:32;23.60;1.00
8402;DHT22;4238;48.404;9.498;2022-09-06T11:10:06;23.40;1.00
8402;DHT22;4238;48.404;9.498;2022-09-06T11:12:42;23.20;1.00
8402;DHT22;4238;48.404;9.498;2022-09-06T11:15:13;23.30;1.00
8402;DHT22;4238;48.404;9.498;2022-09-06T11:17:45;23.30;1.00
8402;DHT22;4238;48.404;9.498;2022-09-06T11:20:17;23.30;1.00
8402;DHT22;4238;48.404;9.498;2022-09-06T11:23:14;23.20;1.00
8402;DHT22;4238;48.404;9.498;2022-09-06T11:29:07;23.40;1.00
8402;DHT22;4238;48.404;9.498;2022-09-06T11:31:50;23.40;1.00
8402;DHT22;4238;48.404;9.498;2022-09-06T11:34:23;23.20;1.00
8402;DHT22;4238;48.404;9.498;2022-09-06T11:36:53;23.10;1.00
8402;DHT22;4238;48.404;9.498;2022-09-06T11:39:27;23.00;1.00
8402;DHT22;4238;48.404;9.498;2022-09-06T11:41:55;22.90;1.00
8402;DHT22;4238;48.404;9.498;2022-09-06T11:44:53;23.00;1.00
8402;DHT22;4238;48.404;9.498;2022-09-06T11:47:39;23.10;1.00
8402;DHT22;4238;48.404;9.498;2022-09-06T11:50:57;23.00;1.00
8402;DHT22;4238;48.404;9.498;2022-09-06T11:53:27;23.00;1.00
8402;DHT22;4238;48.404;9.498;2022-09-06T11:56:10;23.00;1.00
8402;DHT22;4238;48.404;9.498;2022-09-06T11:58:46;23.10;1.00
8402;DHT22;4238;48.404;9.498;2022-09-06T12:01:35;23.30;1.00
8402;DHT22;4238;48.404;9.498;2022-09-06T12:04:04;23.40;1.00
8402;DHT22;4238;48.404;9.498;2022-09-06T12:06:34;23.40;1.00
8402;DHT22;4238;48.404;9.498;2022-09-06T12:09:26;23.40;1.00
8402;DHT22;4238;48.404;9.498;2022-09-06T12:11:54;23.50;1.00
8402;DHT22;4238;48.404;9.498;2022-09-06T12:14:34;23.80;1.00
8402;DHT22;4238;48.404;9.498;2022-09-06T12:17:26;24.10;1.00
8402;DHT22;4238;48.404;9.498;2022-09-06T12:19:55;24.40;1.00
8402;DHT22;4238;48.404;9.498;2022-09-06T12:22:52;24.30;1.00
8402;DHT22;4238;48.404;9.498;2022-09-06T12:25:55;24.40;1.00
8402;DHT22;4238;48.404;9.498;2022-09-06T12:28:45;24.30;1.00
8402;DHT22;4238;48.404;9.498;2022-09-06T12:31:26;24.40;1.00
8402;DHT22;4238;48.404;9.498;2022-09-06T12:33:56;24.70;1.00
8402;DHT22;4238;48.404;9.498;2022-09-06T12:36:25;24.90;1.00
8402;DHT22;4238;48.404;9.498;2022-09-06T12:38:56;25.20;1.00
8402;DHT22;4238;48.404;9.498;2022-09-06T12:41:25;25.60;99.90
8402;DHT22;4238;48.404;9.498;2022-09-06T12:43:53;25.70;99.90
8402;DHT22;4238;48.404;9.498;2022-09-06T12:46:23;25.50;99.90
8402;DHT22;4238;48.404;9.498;2022-09-06T12:49:06;25.30;99.90
8402;DHT22;4238;48.404;9.498;2022-09-06T12:51:34;25.40;18.60
8402;DHT22;4238;48.404;9.498;2022-09-06T12:54:04;25.80;1.00
8402;DHT22;4238;48.404;9.498;2022-09-06T12:56:33;25.50;15.80
8402;DHT22;4238;48.404;9.498;2022-09-06T12:59:10;25.20;99.90
8402;DHT22;4238;48.404;9.498;2022-09-06T13:01:40;25.00;99.90
8402;DHT22;4238;48.404;9.498;2022-09-06T13:04:16;25.20;99.90
8402;DHT22;4238;48.404;9.498;2022-09-06T13:06:45;25.10;93.70
8402;DHT22;4238;48.404;9.498;2022-09-06T13:09:16;25.10;99.90
8402;DHT22;4238;48.404;9.498;2022-09-06T13:11:47;25.20;41.10
8402;DHT22;4238;48.404;9.498;2022-09-06T13:14:17;25.10;99.90
8402;DHT22;4238;48.404;9.498;2022-09-06T13:16:47;25.30;99.90
8402;DHT22;4238;48.404;9.498;2022-09-06T13:19:26;25.50;99.90
8402;DHT22;4238;48.404;9.498;2022-09-06T13:21:55;25.50;99.90
8402;DHT22;4238;48.404;9.498;2022-09-06T13:24:24;25.40;1.00
8402;DHT22;4238;48.404;9.498;2022-09-06T13:26:52;25.50;1.00
8402;DHT22;4238;48.404;9.498;2022-09-06T13:29:24;25.50;99.90
8402;DHT22;4238;48.404;9.498;2022-09-06T13:31:52;25.40;92.90
8402;DHT22;4238;48.404;9.498;2022-09-06T13:34:22;25.40;92.30
8402;DHT22;4238;48.404;9.498;2022-09-06T13:36:50;25.30;99.90
8402;DHT22;4238;48.404;9.498;2022-09-06T13:39:31;25.30;99.80
8402;DHT22;4238;48.404;9.498;2022-09-06T13:42:01;25.20;1.00
8402;DHT22;4238;48.404;9.498;2022-09-06T13:44:29;25.20;99.90
8402;DHT22;4238;48.404;9.498;2022-09-06T13:46:56;25.20;99.90
8402;DHT22;4238;48.404;9.498;2022-09-06T13:49:25;25.10;99.90
8402;DHT22;4238;48.404;9.498;2022-09-06T13:51:53;25.10;99.90
8402;DHT22;4238;48.404;9.498;2022-09-06T13:54:21;25.10;1.00
8402;DHT22;4238;48.404;9.498;2022-09-06T13:56:48;25.00;1.00
8402;DHT22;4238;48.404;9.498;2022-09-06T13:59:16;25.00;99.90
8402;DHT22;4238;48.404;9.498;2022-09-06T14:01:45;25.00;1.00
8402;DHT22;4238;48.404;9.498;2022-09-06T14:04:13;25.00;1.00
8402;DHT22;4238;48.404;9.498;2022-09-06T14:06:42;25.00;1.00
8402;DHT22;4238;48.404;9.498;2022-09-06T14:09:09;25.10;78.00
8402;DHT22;4238;48.404;9.498;2022-09-06T14:11:36;25.10;99.90
8402;DHT22;4238;48.404;9.498;2022-09-06T14:14:04;25.20;1.00
8402;DHT22;4238;48.404;9.498;2022-09-06T14:16:32;25.00;99.90
8402;DHT22;4238;48.404;9.498;2022-09-06T14:18:59;25.00;14.40
8402;DHT22;4238;48.404;9.498;2022-09-06T14:21:26;25.00;41.60
8402;DHT22;4238;48.404;9.498;2022-09-06T14:23:54;25.00;1.00
8402;DHT22;4238;48.404;9.498;2022-09-06T14:26:23;25.10;99.90
8402;DHT22;4238;48.404;9.498;2022-09-06T14:28:50;25.10;1.00
8402;DHT22;4238;48.404;9.498;2022-09-06T14:31:18;25.10;1.00
8402;DHT22;4238;48.404;9.498;2022-09-06T14:33:45;25.20;1.00
8402;DHT22;4238;48.404;9.498;2022-09-06T14:36:14;25.20;99.90
8402;DHT22;4238;48.404;9.498;2022-09-06T14:38:42;25.20;99.90
8402;DHT22;4238;48.404;9.498;2022-09-06T14:41:12;25.30;1.00
8402;DHT22;4238;48.404;9.498;2022-09-06T14:43:41;25.10;99.90
8402;DHT22;4238;48.404;9.498;2022-09-06T14:46:10;24.90;99.90
8402;DHT22;4238;48.404;9.498;2022-09-06T14:48:38;24.60;1.00
8402;DHT22;4238;48.404;9.498;2022-09-06T14:51:07;24.60;1.00
8402;DHT22;4238;48.404;9.498;2022-09-06T14:53:37;24.50;1.00
8402;DHT22;4238;48.404;9.498;2022-09-06T14:56:05;24.40;1.00
8402;DHT22;4238;48.404;9.498;2022-09-06T14:58:34;24.10;1.00
8402;DHT22;4238;48.404;9.498;2022-09-06T15:01:07;24.10;1.00
8402;DHT22;4238;48.404;9.498;2022-09-06T15:03:35;24.10;1.00
8402;DHT22;4238;48.404;9.498;2022-09-06T15:06:02;24.00;1.00
8402;DHT22;4238;48.404;9.498;2022-09-06T15:08:29;24.00;1.00
8402;DHT22;4238;48.404;9.498;2022-09-06T15:10:56;24.20;1.00
8402;DHT22;4238;48.404;9.498;2022-09-06T15:13:24;24.30;1.00
8402;DHT22;4238;48.404;9.498;2022-09-06T15:15:52;24.40;1.00
8402;DHT22;4238;48.404;9.498;2022-09-06T15:18:20;24.30;1.00
8402;DHT22;4238;48.404;9.498;2022-09-06T15:20:47;24.50;1.00
8402;DHT22;4238;48.404;9.498;2022-09-06T15:23:14;24.60;1.00
8402;DHT22;4238;48.404;9.498;2022-09-06T15:25:45;24.50;1.00
8402;DHT22;4238;48.404;9.498;2022-09-06T15:28:13;24.30;1.00
8402;DHT22;4238;48.404;9.498;2022-09-06T15:30:40;24.20;1.00
8402;DHT22;4238;48.404;9.498;2022-09-06T15:33:09;24.10;1.00
8402;DHT22;4238;48.404;9.498;2022-09-06T15:35:37;23.90;1.00
8402;DHT22;4238;48.404;9.498;2022-09-06T15:38:04;23.80;1.00
8402;DHT22;4238;48.404;9.498;2022-09-06T15:40:31;23.60;1.00
8402;DHT22;4238;48.404;9.498;2022-09-06T15:42:58;23.40;1.00
8402;DHT22;4238;48.404;9.498;2022-09-06T15:45:25;23.30;1.00
8402;DHT22;4238;48.404;9.498;2022-09-06T15:47:52;23.30;1.00
8402;DHT22;4238;48.404;9.498;2022-09-06T15:50:22;23.40;1.00
8402;DHT22;4238;48.404;9.498;2022-09-06T15:52:49;23.40;1.00
8402;DHT22;4238;48.404;9.498;2022-09-06T15:55:16;23.40;1.00
8402;DHT22;4238;48.404;9.498;2022-09-06T15:58:00;23.60;1.00
8402;DHT22;4238;48.404;9.498;2022-09-06T16:00:27;23.80;1.00
8402;DHT22;4238;48.404;9.498;2022-09-06T16:02:54;24.00;1.00
8402;DHT22;4238;48.404;9.498;2022-09-06T16:05:24;24.00;1.00
8402;DHT22;4238;48.404;9.498;2022-09-06T16:07:51;24.10;1.00
8402;DHT22;4238;48.404;9.498;2022-09-06T16:10:18;24.10;1.00
8402;DHT22;4238;48.404;9.498;2022-09-06T16:12:45;23.90;1.00
8402;DHT22;4238;48.404;9.498;2022-09-06T16:15:12;23.80;1.00
8402;DHT22;4238;48.404;9.498;2022-09-06T16:17:39;23.70;1.00
8402;DHT22;4238;48.404;9.498;2022-09-06T16:20:06;23.80;1.00
8402;DHT22;4238;48.404;9.498;2022-09-06T16:22:35;23.60;1.00
8402;DHT22;4238;48.404;9.498;2022-09-06T16:25:02;23.50;1.00
8402;DHT22;4238;48.404;9.498;2022-09-06T16:27:30;23.50;1.00
8402;DHT22;4238;48.404;9.498;2022-09-06T16:29:57;23.60;1.00
8402;DHT22;4238;48.404;9.498;2022-09-06T16:32:24;23.70;1.00
8402;DHT22;4238;48.404;9.498;2022-09-06T16:34:51;23.70;1.00
8402;DHT22;4238;48.404;9.498;2022-09-06T16:37:18;23.60;1.00
8402;DHT22;4238;48.404;9.498;2022-09-06T16:39:46;23.50;1.00
8402;DHT22;4238;48.404;9.498;2022-09-06T16:42:13;23.20;1.00
8402;DHT22;4238;48.404;9.498;2022-09-06T16:44:40;23.10;1.00